sensor_id;sensor_type;location;lat;lon;timestamp;pressure;altitude;pressure_sealevel;temperature
25514;BMP180;48128;54.242;10.280;2023-03-31T00:00:45;99706.00;;;9.60
25514;BMP180;48128;54.242;10.280;2023-03-31T00:03:15;99706.00;;;9.60
25514;BMP180;48128;54.242;10.280;2023-03-31T00:05:48;99713.00;;;9.60
25514;BMP180;48128;54.242;10.280;2023-03-31T00:08:19;99714.00;;;9.60
25514;BMP180;48128;54.242;10.280;2023-03-31T00:10:46;99701.00;;;9.60
25514;BMP180;48128;54.242;10.280;2023-03-31T00:13:14;99701.00;;;9.60
25514;BMP180;48128;54.242;10.280;2023-03-31T00:15:41;99693.00;;;9.60
25514;BMP180;48128;54.242;10.280;2023-03-31T00:18:08;99690.00;;;9.60
25514;BMP180;48128;54.242;10.280;2023-03-31T00:20:35;99705.00;;;9.60
25514;BMP180;48128;54.242;10.280;2023-03-31T00:23:04;99700.00;;;9.60
25514;BMP180;48128;54.242;10.280;2023-03-31T00:25:39;99689.00;;;9.60
25514;BMP180;48128;54.242;10.280;2023-03-31T00:28:07;99688.00;;;9.60
25514;BMP180;48128;54.242;10.280;2023-03-31T00:30:34;99690.00;;;9.60
25514;BMP180;48128;54.242;10.280;2023-03-31T00:33:01;99687.00;;;9.60
25514;BMP180;48128;54.242;10.280;2023-03-31T00:35:28;99677.00;;;9.60
25514;BMP180;48128;54.242;10.280;2023-03-31T00:37:55;99681.00;;;9.60
25514;BMP180;48128;54.242;10.280;2023-03-31T00:40:23;99669.00;;;9.60
25514;BMP180;48128;54.242;10.280;2023-03-31T00:42:50;99690.00;;;9.60
25514;BMP180;48128;54.242;10.280;2023-03-31T00:45:23;99679.00;;;9.60
25514;BMP180;48128;54.242;10.280;2023-03-31T00:48:12;99676.00;;;9.60
25514;BMP180;48128;54.242;10.280;2023-03-31T00:50:51;99684.00;;;9.60
25514;BMP180;48128;54.242;10.280;2023-03-31T00:53:21;99681.00;;;9.70
25514;BMP180;48128;54.242;10.280;2023-03-31T00:55:51;99655.00;;;9.70
25514;BMP180;48128;54.242;10.280;2023-03-31T00:58:19;99659.00;;;9.70
25514;BMP180;48128;54.242;10.280;2023-03-31T01:00:47;99661.00;;;9.70
25514;BMP180;48128;54.242;10.280;2023-03-31T01:03:15;99653.00;;;9.60
25514;BMP180;48128;54.242;10.280;2023-03-31T01:06:02;99656.00;;;9.70
25514;BMP180;48128;54.242;10.280;2023-03-31T01:08:31;99662.00;;;9.70
25514;BMP180;48128;54.242;10.280;2023-03-31T01:11:03;99651.00;;;9.70
25514;BMP180;48128;54.242;10.280;2023-03-31T01:13:35;99648.00;;;9.70
25514;BMP180;48128;54.242;10.280;2023-03-31T01:16:02;99644.00;;;9.70
25514;BMP180;48128;54.242;10.280;2023-03-31T01:18:30;99645.00;;;9.70
25514;BMP180;48128;54.242;10.280;2023-03-31T01:24:25;99635.00;;;9.70
25514;BMP180;48128;54.242;10.280;2023-03-31T01:29:57;99635.00;;;9.70
25514;BMP180;48128;54.242;10.280;2023-03-31T01:35:30;99623.00;;;9.70
25514;BMP180;48128;54.242;10.280;2023-03-31T01:40:59;99627.00;;;9.70
25514;BMP180;48128;54.242;10.280;2023-03-31T01:43:51;99612.00;;;9.70
25514;BMP180;48128;54.242;10.280;2023-03-31T01:46:32;99602.00;;;9.70
25514;BMP180;48128;54.242;10.280;2023-03-31T01:54:38;99602.00;;;9.70
25514;BMP180;48128;54.242;10.280;2023-03-31T01:57:23;99602.00;;;9.70
25514;BMP180;48128;54.242;10.280;2023-03-31T02:00:10;99589.00;;;9.70
25514;BMP180;48128;54.242;10.280;2023-03-31T02:02:47;99599.00;;;9.70
25514;BMP180;48128;54.242;10.280;2023-03-31T02:05:24;99596.00;;;9.70
25514;BMP180;48128;54.242;10.280;2023-03-31T02:07:57;99594.00;;;9.70
25514;BMP180;48128;54.242;10.280;2023-03-31T02:10:26;99586.00;;;9.70
25514;BMP180;48128;54.242;10.280;2023-03-31T02:12:56;99591.00;;;9.70
25514;BMP180;48128;54.242;10.280;2023-03-31T02:15:29;99583.00;;;9.70
25514;BMP180;48128;54.242;10.280;2023-03-31T02:17:57;99583.00;;;9.70
25514;BMP180;48128;54.242;10.280;2023-03-31T02:20:26;99572.00;;;9.70
25514;BMP180;48128;54.242;10.280;2023-03-31T02:22:55;99579.00;;;9.70
25514;BMP180;48128;54.242;10.280;2023-03-31T02:25:26;99566.00;;;9.70
25514;BMP180;48128;54.242;10.280;2023-03-31T02:27:59;99564.00;;;9.70
25514;BMP180;48128;54.242;10.280;2023-03-31T02:30:32;99564.00;;;9.70
25514;BMP180;48128;54.242;10.280;2023-03-31T02:33:02;99557.00;;;9.70
25514;BMP180;48128;54.242;10.280;2023-03-31T02:35:30;99569.00;;;9.70
25514;BMP180;48128;54.242;10.280;2023-03-31T02:38:00;99564.00;;;9.60
25514;BMP180;48128;54.242;10.280;2023-03-31T02:40:28;99553.00;;;9.60
25514;BMP180;48128;54.242;10.280;2023-03-31T02:42:56;99548.00;;;9.60
25514;BMP180;48128;54.242;10.280;2023-03-31T02:48:08;99549.00;;;9.60
25514;BMP180;48128;54.242;10.280;2023-03-31T02:50:49;99533.00;;;9.60
25514;BMP180;48128;54.242;10.280;2023-03-31T03:10:50;99516.00;;;9.50
25514;BMP180;48128;54.242;10.280;2023-03-31T03:13:34;99510.00;;;9.50
25514;BMP180;48128;54.242;10.280;2023-03-31T03:18:57;99508.00;;;9.50
25514;BMP180;48128;54.242;10.280;2023-03-31T03:21:25;99494.00;;;9.50
25514;BMP180;48128;54.242;10.280;2023-03-31T03:23:52;99500.00;;;9.50
25514;BMP180;48128;54.242;10.280;2023-03-31T03:26:20;99497.00;;;9.50
25514;BMP180;48128;54.242;10.280;2023-03-31T03:28:49;99493.00;;;9.60
25514;BMP180;48128;54.242;10.280;2023-03-31T03:31:16;99486.00;;;9.60
25514;BMP180;48128;54.242;10.280;2023-03-31T03:33:44;99490.00;;;9.50
25514;BMP180;48128;54.242;10.280;2023-03-31T03:36:12;99470.00;;;9.50
25514;BMP180;48128;54.242;10.280;2023-03-31T03:38:38;99474.00;;;9.50
25514;BMP180;48128;54.242;10.280;2023-03-31T03:41:05;99478.00;;;9.50
25514;BMP180;48128;54.242;10.280;2023-03-31T03:43:33;99487.00;;;9.50
25514;BMP180;48128;54.242;10.280;2023-03-31T03:46:00;99489.00;;;9.50
25514;BMP180;48128;54.242;10.280;2023-03-31T03:48:27;99479.00;;;9.50
25514;BMP180;48128;54.242;10.280;2023-03-31T03:50:53;99479.00;;;9.50
25514;BMP180;48128;54.242;10.280;2023-03-31T03:53:21;99473.00;;;9.50
25514;BMP180;48128;54.242;10.280;2023-03-31T03:55:47;99480.00;;;9.50
25514;BMP180;48128;54.242;10.280;2023-03-31T03:58:16;99475.00;;;9.50
25514;BMP180;48128;54.242;10.280;2023-03-31T04:00:42;99484.00;;;9.50
25514;BMP180;48128;54.242;10.280;2023-03-31T04:03:11;99477.00;;;9.50
25514;BMP180;48128;54.242;10.280;2023-03-31T04:05:38;99487.00;;;9.50
25514;BMP180;48128;54.242;10.280;2023-03-31T04:08:05;99474.00;;;9.50
25514;BMP180;48128;54.242;10.280;2023-03-31T04:10:34;99478.00;;;9.50
25514;BMP180;48128;54.242;10.280;2023-03-31T04:13:01;99470.00;;;9.50
25514;BMP180;48128;54.242;10.280;2023-03-31T04:15:28;99466.00;;;9.50
25514;BMP180;48128;54.242;10.280;2023-03-31T04:17:55;99463.00;;;9.50
25514;BMP180;48128;54.242;10.280;2023-03-31T04:20:24;99456.00;;;9.50
25514;BMP180;48128;54.242;10.280;2023-03-31T04:22:53;99448.00;;;9.50
25514;BMP180;48128;54.242;10.280;2023-03-31T04:25:20;99456.00;;;9.50
25514;BMP180;48128;54.242;10.280;2023-03-31T04:27:49;99446.00;;;9.50
25514;BMP180;48128;54.242;10.280;2023-03-31T04:30:24;99441.00;;;9.40
25514;BMP180;48128;54.242;10.280;2023-03-31T04:33:01;99432.00;;;9.50
25514;BMP180;48128;54.242;10.280;2023-03-31T04:35:29;99429.00;;;9.50
25514;BMP180;48128;54.242;10.280;2023-03-31T04:38:08;99438.00;;;9.40
25514;BMP180;48128;54.242;10.280;2023-03-31T04:40:35;99436.00;;;9.40
25514;BMP180;48128;54.242;10.280;2023-03-31T04:43:02;99434.00;;;9.50
25514;BMP180;48128;54.242;10.280;2023-03-31T04:45:29;99436.00;;;9.40
25514;BMP180;48128;54.242;10.280;2023-03-31T04:47:56;99424.00;;;9.40
25514;BMP180;48128;54.242;10.280;2023-03-31T04:50:23;99426.00;;;9.40
25514;BMP180;48128;54.242;10.280;2023-03-31T04:52:49;99425.00;;;9.40
25514;BMP180;48128;54.242;10.280;2023-03-31T04:55:16;99425.00;;;9.40
25514;BMP180;48128;54.242;10.280;2023-03-31T04:57:43;99429.00;;;9.40
